Nashville, TN (37221)

10:04 PM CST on February 06, 2016 (GMT -0600)
Horseshoe Bend | | Change Station
CLOSE
Current Station
Personal Weather Station
Location: Nashville, TN
Elevation: 571 ft
Nearby Weather Stations

Elev 571 ft 36.05 °N, 86.93 °W | Updated 7 minutes ago

Partly Cloudy
Partly Cloudy
28.2 °F
Feels Like 28 °F
N
0.0
Wind Variable Wind from South

Today
High -- | Low -- °F
--% Chance of Precip.
Yesterday
High -- | Low -- °F
Precip. -- in
Pressure 30.30 in
Visibility 10.0 miles
Clouds Clear
Windchill 28 °F
Dew Point 28 °F
Humidity 98%
Rainfall 0.00 in
Snow Depth Not available.
6:44 AM 5:19 PM
Waning Crescent, 3% visible
METAR KBNA 070353Z 19004KT 10SM CLR 02/M04 A3029 RMK AO2 SLP260 T00221044
Pressure 30.30 in
Visibility 10.0 miles
Clouds Clear
Windchill 28 °F
Dew Point 28 °F
Humidity 98%
Rainfall 0.00 in
Snow Depth Not available.
6:44 AM 5:19 PM
Waning Crescent, 3% visible
METAR KBNA 070353Z 19004KT 10SM CLR 02/M04 A3029 RMK AO2 SLP260 T00221044

10-Day Weather Forecast

Almanac

Astronomy

Feb. 06, 2016 Rise Set
Actual Time
Civil Twilight
Nautical Twilight
Astronomical Twilight
Moon
Length of Visible Light
Length of Day
Tomorrow will be .
, % of the Moon is Illuminated

Today's Extremes

State Highs State Lows

Community

WunderPhotos

Upload Photos

1,891,155 photos uploaded!

WunderBlog® & News

Nearby

Air Quality

  Air Quality AQ Index Pollutant
Not available.

Snow Depth

Station Depth Elevation

Earthquake Activity

City Distance Mag. Time & Date
Minimum magnitude displayed is 2.5.

Coastal Water Temperatures

Place Temperature

Stations

Nearby Weather Stations

Station Location Temp. Windchill Dew Point Humidity Wind Precip. Elev Updated Type
                   

Watches & Warnings

There are currently no watches in effect.